createdAt,value
2023-04-29T00:01:48.886Z,14.78
2023-04-29T00:04:17.223Z,15.41
2023-04-29T00:06:44.806Z,14.78
2023-04-29T00:09:12.211Z,15.37
2023-04-29T00:11:39.944Z,15.51
2023-04-29T00:14:07.300Z,15.58
2023-04-29T00:16:34.718Z,15.63
2023-04-29T00:19:02.656Z,15.77
2023-04-29T00:21:30.311Z,15.84
2023-04-29T00:23:58.060Z,15.44
2023-04-29T00:26:25.939Z,15.56
2023-04-29T00:28:53.679Z,15.58
2023-04-29T00:31:21.943Z,15.70
2023-04-29T00:33:49.702Z,15.36
2023-04-29T00:36:17.079Z,15.80
2023-04-29T00:38:44.702Z,15.69
2023-04-29T00:41:12.543Z,16.01
2023-04-29T00:43:39.958Z,16.19
2023-04-29T00:46:07.369Z,16.25
2023-04-29T00:48:35.084Z,16.33
2023-04-29T00:51:04.045Z,16.35
2023-04-29T00:53:31.779Z,16.52
2023-04-29T00:56:00.830Z,16.31
2023-04-29T00:58:33.565Z,16.38
2023-04-29T01:01:01.857Z,16.39
2023-04-29T01:03:30.750Z,16.47
2023-04-29T01:06:25.085Z,16.25
2023-04-29T01:09:01.882Z,16.27
2023-04-29T01:11:36.259Z,16.35
2023-04-29T01:14:04.828Z,16.19
2023-04-29T01:16:49.301Z,16.48
2023-04-29T01:19:34.211Z,16.17
2023-04-29T01:22:01.658Z,16.50
2023-04-29T01:24:29.983Z,16.27
2023-04-29T01:27:08.529Z,16.37
2023-04-29T01:29:52.057Z,16.20
2023-04-29T01:32:31.144Z,16.22
2023-04-29T01:35:06.014Z,15.96
2023-04-29T01:37:52.493Z,15.88
2023-04-29T01:40:26.573Z,16.07
2023-04-29T01:42:55.060Z,16.06
2023-04-29T01:45:23.350Z,16.00
2023-04-29T01:47:53.712Z,16.15
2023-04-29T01:50:21.709Z,15.88
2023-04-29T01:52:49.488Z,15.90
2023-04-29T01:55:17.035Z,15.74
2023-04-29T01:57:45.212Z,15.81
2023-04-29T02:00:13.756Z,15.70
2023-04-29T02:02:42.338Z,15.50
2023-04-29T02:05:10.132Z,15.55
2023-04-29T02:07:40.244Z,15.83
2023-04-29T02:10:08.260Z,15.50
2023-04-29T02:12:36.586Z,15.88
2023-04-29T02:15:04.921Z,15.93
2023-04-29T02:17:34.121Z,15.99
2023-04-29T02:20:01.558Z,15.99
2023-04-29T02:22:29.287Z,15.74
2023-04-29T02:24:58.440Z,15.84
2023-04-29T02:27:26.707Z,15.67
2023-04-29T02:29:54.904Z,14.85
2023-04-29T02:32:22.731Z,15.77
2023-04-29T02:34:50.555Z,15.76
2023-04-29T02:37:17.968Z,15.70
2023-04-29T02:39:47.120Z,15.48
2023-04-29T02:42:14.800Z,15.67
2023-04-29T02:44:42.638Z,15.54
2023-04-29T02:47:10.079Z,15.25
2023-04-29T02:49:38.563Z,14.94
2023-04-29T02:52:05.936Z,14.88
2023-04-29T02:54:33.575Z,14.73
2023-04-29T02:57:01.320Z,14.76
2023-04-29T02:59:28.708Z,14.65
2023-04-29T03:01:56.129Z,14.07
2023-04-29T03:04:24.028Z,14.61
2023-04-29T03:06:51.534Z,15.07
2023-04-29T03:09:18.984Z,14.67
2023-04-29T03:11:46.809Z,15.10
2023-04-29T03:14:14.417Z,14.00
2023-04-29T03:16:42.759Z,14.52
2023-04-29T03:19:10.621Z,15.23
2023-04-29T03:21:38.002Z,14.63
2023-04-29T03:24:05.891Z,15.02
2023-04-29T03:26:33.863Z,14.89
2023-04-29T03:29:01.479Z,15.55
2023-04-29T03:31:29.013Z,15.50
2023-04-29T03:33:56.683Z,15.03
2023-04-29T03:36:24.235Z,15.08
2023-04-29T03:38:51.720Z,15.46
2023-04-29T03:41:19.721Z,15.66
2023-04-29T03:43:47.937Z,15.74
2023-04-29T03:46:15.465Z,15.65
2023-04-29T03:48:43.271Z,15.79
2023-04-29T03:51:10.898Z,15.77
2023-04-29T03:53:38.609Z,15.94
2023-04-29T03:56:07.046Z,16.02
2023-04-29T03:58:34.505Z,15.88
2023-04-29T04:01:02.184Z,15.95
2023-04-29T04:03:32.695Z,15.82
2023-04-29T04:06:00.595Z,15.86
2023-04-29T04:08:28.394Z,15.81
2023-04-29T04:11:02.793Z,15.92
2023-04-29T04:13:30.497Z,15.91
2023-04-29T04:15:58.886Z,15.92
2023-04-29T04:18:26.751Z,15.85
2023-04-29T04:20:54.236Z,15.77
2023-04-29T04:23:21.900Z,15.78
2023-04-29T04:25:49.554Z,15.90
2023-04-29T04:28:17.432Z,15.86
2023-04-29T04:30:46.561Z,15.85
2023-04-29T04:33:14.002Z,15.76
2023-04-29T04:35:43.303Z,15.74
2023-04-29T04:38:15.232Z,15.87
2023-04-29T04:40:43.086Z,15.79
2023-04-29T04:43:11.584Z,15.80
2023-04-29T04:45:40.499Z,15.59
2023-04-29T04:48:08.001Z,15.65
2023-04-29T04:50:36.620Z,15.51
2023-04-29T04:53:04.264Z,15.64
2023-04-29T04:55:33.542Z,15.57
2023-04-29T04:58:01.694Z,15.36
2023-04-29T05:00:29.366Z,15.75
2023-04-29T05:02:56.880Z,15.65
2023-04-29T05:05:24.788Z,15.58
2023-04-29T05:07:52.239Z,15.58
2023-04-29T05:10:20.994Z,15.28
2023-04-29T05:12:48.969Z,15.27
2023-04-29T05:15:17.036Z,15.35
2023-04-29T05:17:44.731Z,15.43
2023-04-29T05:20:12.688Z,15.37
2023-04-29T05:22:40.134Z,15.44
2023-04-29T05:25:08.399Z,15.40
2023-04-29T05:27:36.236Z,15.36
2023-04-29T05:30:04.787Z,15.38
2023-04-29T05:32:33.828Z,15.45
2023-04-29T05:35:01.672Z,15.06
2023-04-29T05:37:31.260Z,15.22
2023-04-29T05:40:01.754Z,15.48
2023-04-29T05:42:30.317Z,15.40
2023-04-29T05:44:57.791Z,15.57
2023-04-29T05:47:25.267Z,15.53
2023-04-29T05:49:53.204Z,15.64
2023-04-29T05:52:21.008Z,15.56
2023-04-29T05:54:49.312Z,15.23
2023-04-29T05:57:17.588Z,15.43
2023-04-29T05:59:45.112Z,15.81
2023-04-29T06:02:12.744Z,15.52
2023-04-29T06:04:43.485Z,15.55
2023-04-29T06:07:12.578Z,15.91
2023-04-29T06:09:40.421Z,16.05
2023-04-29T06:12:07.862Z,16.27
2023-04-29T06:14:35.281Z,15.95
2023-04-29T06:17:04.037Z,16.07
2023-04-29T06:19:33.661Z,15.64
2023-04-29T06:22:01.181Z,16.28
2023-04-29T06:24:28.946Z,16.25
2023-04-29T06:26:57.605Z,15.32
2023-04-29T06:29:26.367Z,15.66
2023-04-29T06:31:54.351Z,15.99
2023-04-29T06:34:22.200Z,15.75
2023-04-29T06:36:50.751Z,15.63
2023-04-29T06:39:18.600Z,15.58
2023-04-29T06:41:46.723Z,15.22
2023-04-29T06:44:14.176Z,14.94
2023-04-29T06:46:41.874Z,15.55
2023-04-29T06:49:10.156Z,15.63
2023-04-29T06:51:38.071Z,15.60
2023-04-29T06:54:05.870Z,14.92
2023-04-29T06:56:33.293Z,15.72
2023-04-29T06:59:00.721Z,15.97
2023-04-29T07:01:28.685Z,15.27
2023-04-29T07:03:56.952Z,15.72
2023-04-29T07:06:24.613Z,15.42
2023-04-29T07:08:54.872Z,15.69
2023-04-29T07:11:27.062Z,15.56
2023-04-29T07:13:54.773Z,15.72
2023-04-29T07:16:22.340Z,16.11
2023-04-29T07:18:49.873Z,15.40
2023-04-29T07:21:17.574Z,15.77
2023-04-29T07:23:45.097Z,16.01
2023-04-29T07:26:16.530Z,15.98
2023-04-29T07:28:45.068Z,15.50
2023-04-29T07:31:14.844Z,15.52
2023-04-29T07:33:42.333Z,15.87
2023-04-29T07:36:11.918Z,16.27
2023-04-29T07:38:40.218Z,15.78
2023-04-29T07:41:07.625Z,16.16
2023-04-29T07:43:35.372Z,15.84
2023-04-29T07:46:02.791Z,16.02
2023-04-29T07:48:30.240Z,16.62
2023-04-29T07:50:57.907Z,16.59
2023-04-29T07:53:25.315Z,16.41
2023-04-29T07:55:52.865Z,16.75
2023-04-29T07:58:20.909Z,16.56
2023-04-29T08:00:48.618Z,16.61
2023-04-29T08:03:16.574Z,16.79
2023-04-29T08:05:45.342Z,17.61
2023-04-29T08:08:15.394Z,17.53
2023-04-29T08:10:44.294Z,17.27
2023-04-29T08:13:11.737Z,17.37
2023-04-29T08:15:40.213Z,16.68
2023-04-29T08:18:08.000Z,16.20
2023-04-29T08:20:35.724Z,16.53
2023-04-29T08:23:03.100Z,16.45
2023-04-29T08:25:30.902Z,17.31
2023-04-29T08:27:58.287Z,16.59
2023-04-29T08:30:25.689Z,17.07
2023-04-29T08:32:53.427Z,16.59
2023-04-29T08:35:20.942Z,17.58
2023-04-29T08:37:48.579Z,17.42
2023-04-29T08:40:16.369Z,17.50
2023-04-29T08:42:46.833Z,17.56
2023-04-29T08:45:19.617Z,17.18
2023-04-29T08:47:47.732Z,18.00
2023-04-29T08:50:15.306Z,17.95
2023-04-29T08:52:43.063Z,18.07
2023-04-29T08:55:10.534Z,18.07
2023-04-29T08:57:39.852Z,18.07
2023-04-29T09:00:08.921Z,18.50
2023-04-29T09:02:43.702Z,17.63
2023-04-29T09:05:12.795Z,17.68
2023-04-29T09:07:42.035Z,18.37
2023-04-29T09:10:10.041Z,18.35
2023-04-29T09:12:37.690Z,18.29
2023-04-29T09:15:05.594Z,17.68
2023-04-29T09:17:46.172Z,18.12
2023-04-29T09:20:20.070Z,17.28
2023-04-29T09:22:58.767Z,17.99
2023-04-29T09:25:27.306Z,18.67
2023-04-29T09:27:55.699Z,18.87
2023-04-29T09:30:23.497Z,18.25
2023-04-29T09:33:08.761Z,18.23
2023-04-29T09:35:36.395Z,18.87
2023-04-29T09:38:14.617Z,18.08
2023-04-29T09:40:50.716Z,18.07
2023-04-29T09:43:26.254Z,18.01
2023-04-29T09:45:53.873Z,18.64
2023-04-29T09:48:21.337Z,18.50
2023-04-29T09:51:01.631Z,17.85
2023-04-29T09:53:30.474Z,18.71
2023-04-29T09:56:02.572Z,18.33
2023-04-29T09:58:34.112Z,18.76
2023-04-29T10:01:03.022Z,18.71
2023-04-29T10:03:33.734Z,18.56
2023-04-29T10:06:02.672Z,18.97
2023-04-29T10:08:30.989Z,18.75
2023-04-29T10:11:05.957Z,18.69
2023-04-29T10:13:35.222Z,18.53
2023-04-29T10:16:21.366Z,18.72
2023-04-29T10:19:00.564Z,18.14
2023-04-29T10:21:32.263Z,19.05
2023-04-29T10:24:02.314Z,18.51
2023-04-29T10:26:32.011Z,18.69
2023-04-29T10:29:00.334Z,19.37
2023-04-29T10:31:28.083Z,19.23
2023-04-29T10:33:57.936Z,19.00
2023-04-29T10:36:26.258Z,18.81
2023-04-29T10:38:55.439Z,19.47
2023-04-29T10:41:26.969Z,19.20
2023-04-29T10:43:55.263Z,18.88
2023-04-29T10:46:26.445Z,19.17
2023-04-29T10:49:04.088Z,19.73
2023-04-29T10:51:33.896Z,19.72
2023-04-29T10:54:04.395Z,20.57
2023-04-29T10:56:44.827Z,20.69
2023-04-29T10:59:14.387Z,19.61
2023-04-29T11:01:46.961Z,20.38
2023-04-29T11:04:15.695Z,20.58
2023-04-29T11:06:47.454Z,20.60
2023-04-29T11:09:19.655Z,20.91
2023-04-29T11:11:54.467Z,20.77
2023-04-29T11:14:27.560Z,20.25
2023-04-29T11:17:01.452Z,20.04
2023-04-29T11:19:34.558Z,20.69
2023-04-29T11:22:28.583Z,21.03
2023-04-29T11:24:57.879Z,21.08
2023-04-29T11:27:36.357Z,19.68
2023-04-29T11:30:05.471Z,20.61
2023-04-29T11:32:36.848Z,20.21
2023-04-29T11:35:12.940Z,20.55
2023-04-29T11:37:42.007Z,21.15
2023-04-29T11:40:10.047Z,20.98
2023-04-29T11:42:48.198Z,21.03
2023-04-29T11:45:18.769Z,20.91
2023-04-29T11:47:47.888Z,20.59
2023-04-29T11:50:19.210Z,20.83
2023-04-29T11:52:47.761Z,20.75
2023-04-29T11:55:15.475Z,20.36
2023-04-29T11:57:43.762Z,20.60
2023-04-29T12:00:14.603Z,20.06
2023-04-29T12:02:47.733Z,20.80
2023-04-29T12:05:17.253Z,21.11
2023-04-29T12:07:45.574Z,21.49
2023-04-29T12:10:13.061Z,20.67
2023-04-29T12:12:47.399Z,20.59
2023-04-29T12:15:15.284Z,20.83
2023-04-29T12:17:42.847Z,20.93
2023-04-29T12:20:11.095Z,20.91
2023-04-29T12:22:39.068Z,21.18
2023-04-29T12:25:08.058Z,21.67
2023-04-29T12:27:36.216Z,20.55
2023-04-29T12:30:08.258Z,20.33
2023-04-29T12:32:36.962Z,21.01
2023-04-29T12:35:05.012Z,21.66
2023-04-29T12:37:33.917Z,21.27
2023-04-29T12:40:01.490Z,21.71
2023-04-29T12:42:34.998Z,21.09
2023-04-29T12:45:02.658Z,21.27
2023-04-29T12:47:37.638Z,22.11
2023-04-29T12:50:07.246Z,21.12
2023-04-29T12:52:36.752Z,21.60
2023-04-29T12:55:05.105Z,20.86
2023-04-29T12:57:32.570Z,21.02
2023-04-29T13:00:00.370Z,21.73
2023-04-29T13:02:28.531Z,21.80
2023-04-29T13:04:56.481Z,21.93
2023-04-29T13:07:24.451Z,21.70
2023-04-29T13:09:51.851Z,21.94
2023-04-29T13:12:19.275Z,21.58
2023-04-29T13:14:46.970Z,21.98
2023-04-29T13:17:14.880Z,22.19
2023-04-29T13:19:51.144Z,22.70
2023-04-29T13:22:19.920Z,22.97
2023-04-29T13:24:47.786Z,23.15
2023-04-29T13:27:15.243Z,22.78
2023-04-29T13:29:42.896Z,22.44
2023-04-29T13:32:10.548Z,21.93
2023-04-29T13:34:38.075Z,21.89
2023-04-29T13:37:06.151Z,21.77
2023-04-29T13:39:38.114Z,22.19
2023-04-29T13:42:06.630Z,21.95
2023-04-29T13:44:47.502Z,22.00
2023-04-29T13:47:25.612Z,22.54
2023-04-29T13:50:23.847Z,22.47
2023-04-29T13:55:39.494Z,23.14
2023-04-29T13:58:43.504Z,22.90
2023-04-29T14:01:17.163Z,22.70
2023-04-29T14:03:35.989Z,22.47
2023-04-29T14:06:03.875Z,22.46
2023-04-29T14:08:31.264Z,22.35
2023-04-29T14:10:59.116Z,22.13
2023-04-29T14:13:26.640Z,22.64
2023-04-29T14:15:54.611Z,22.38
2023-04-29T14:18:22.425Z,21.34
2023-04-29T14:20:49.865Z,21.71
2023-04-29T14:23:17.272Z,21.92
2023-04-29T14:25:45.049Z,21.83
2023-04-29T14:28:12.700Z,21.91
2023-04-29T14:30:41.111Z,22.12
2023-04-29T14:33:09.154Z,22.23
2023-04-29T14:35:36.596Z,21.44
2023-04-29T14:38:03.995Z,21.81
2023-04-29T14:40:31.772Z,21.98
2023-04-29T14:42:59.164Z,22.12
2023-04-29T14:45:26.569Z,22.08
2023-04-29T14:47:54.233Z,22.17
2023-04-29T14:50:23.271Z,21.95
2023-04-29T14:52:50.946Z,22.33
2023-04-29T14:55:18.666Z,22.26
2023-04-29T14:57:46.315Z,22.25
2023-04-29T15:00:15.079Z,21.92
2023-04-29T15:02:43.056Z,22.30
2023-04-29T15:05:10.557Z,22.35
2023-04-29T15:07:37.994Z,22.38
2023-04-29T15:10:07.858Z,21.51
2023-04-29T15:12:35.287Z,21.28
2023-04-29T15:15:02.709Z,21.76
2023-04-29T15:17:30.689Z,21.52
2023-04-29T15:19:58.136Z,21.84
2023-04-29T15:22:25.574Z,21.99
2023-04-29T15:24:53.336Z,22.17
2023-04-29T15:27:21.513Z,22.07
2023-04-29T15:29:48.956Z,21.99
2023-04-29T15:32:17.200Z,21.89
2023-04-29T15:34:44.644Z,21.59
2023-04-29T15:37:12.264Z,22.16
2023-04-29T15:39:39.983Z,22.14
2023-04-29T15:42:07.532Z,22.14
2023-04-29T15:44:34.907Z,21.84
2023-04-29T15:47:02.640Z,21.26
2023-04-29T15:49:31.073Z,20.92
2023-04-29T15:51:58.486Z,20.90
2023-04-29T15:54:26.194Z,20.94
2023-04-29T15:56:55.591Z,21.05
2023-04-29T15:59:23.057Z,21.56
2023-04-29T16:01:50.857Z,21.54
2023-04-29T16:04:18.660Z,21.77
2023-04-29T16:06:46.182Z,21.81
2023-04-29T16:09:14.032Z,21.20
2023-04-29T16:11:42.080Z,21.47
2023-04-29T16:14:09.543Z,21.61
2023-04-29T16:16:37.099Z,21.34
2023-04-29T16:19:04.819Z,21.37
2023-04-29T16:21:32.922Z,20.87
2023-04-29T16:24:00.325Z,20.93
2023-04-29T16:26:28.268Z,20.58
2023-04-29T16:28:55.933Z,20.40
2023-04-29T16:31:23.648Z,20.38
2023-04-29T16:33:51.365Z,20.61
2023-04-29T16:36:18.984Z,20.78
2023-04-29T16:38:46.498Z,21.00
2023-04-29T16:41:14.160Z,21.08
2023-04-29T16:43:41.552Z,20.85
2023-04-29T16:46:09.932Z,21.45
2023-04-29T16:48:37.715Z,21.28
2023-04-29T16:51:05.170Z,21.68
2023-04-29T16:53:32.586Z,21.48
2023-04-29T16:56:00.478Z,21.50
2023-04-29T16:58:28.979Z,21.39
2023-04-29T17:00:56.573Z,21.31
2023-04-29T17:03:24.372Z,20.72
2023-04-29T17:05:51.896Z,21.08
2023-04-29T17:08:19.390Z,21.30
2023-04-29T17:10:47.127Z,20.86
2023-04-29T17:13:14.744Z,21.24
2023-04-29T17:15:42.243Z,21.28
2023-04-29T17:18:09.980Z,21.01
2023-04-29T17:20:37.471Z,20.91
2023-04-29T17:23:05.634Z,20.81
2023-04-29T17:25:33.568Z,20.78
2023-04-29T17:28:01.110Z,20.81
2023-04-29T17:30:28.607Z,21.03
2023-04-29T17:32:56.471Z,21.18
2023-04-29T17:35:23.999Z,20.86
2023-04-29T17:37:51.418Z,20.76
2023-04-29T17:40:19.412Z,20.95
2023-04-29T17:42:46.846Z,20.53
2023-04-29T17:45:14.365Z,20.22
2023-04-29T17:47:42.149Z,20.63
2023-04-29T17:50:09.634Z,20.87
2023-04-29T17:52:37.203Z,20.82
2023-04-29T17:55:05.498Z,20.72
2023-04-29T17:57:33.059Z,20.79
2023-04-29T18:00:00.926Z,20.73
2023-04-29T18:02:28.640Z,20.93
2023-04-29T18:04:56.442Z,21.00
2023-04-29T18:07:24.063Z,20.90
2023-04-29T18:09:51.718Z,20.90
2023-04-29T18:12:19.824Z,20.79
2023-04-29T18:14:48.819Z,20.86
2023-04-29T18:17:16.380Z,20.80
2023-04-29T18:19:46.851Z,20.47
2023-04-29T18:22:14.427Z,20.48
2023-04-29T18:24:41.873Z,20.56
2023-04-29T18:27:09.622Z,20.55
2023-04-29T18:29:37.059Z,20.58
2023-04-29T18:32:07.242Z,20.58
2023-04-29T18:34:36.167Z,20.55
2023-04-29T18:37:03.598Z,20.43
2023-04-29T18:39:31.015Z,20.44
2023-04-29T18:41:59.080Z,20.37
2023-04-29T18:44:27.987Z,20.23
2023-04-29T18:46:55.697Z,20.20
2023-04-29T18:49:23.382Z,20.12
2023-04-29T18:51:51.072Z,20.03
2023-04-29T18:54:18.806Z,20.03
2023-04-29T18:56:48.358Z,19.86
2023-04-29T18:59:19.314Z,19.81
2023-04-29T19:01:48.356Z,19.57
2023-04-29T19:04:16.678Z,19.57
2023-04-29T19:06:44.600Z,19.42
2023-04-29T19:09:13.589Z,19.53
2023-04-29T19:11:41.193Z,19.60
2023-04-29T19:14:08.630Z,19.55
2023-04-29T19:16:37.371Z,19.46
2023-04-29T19:19:05.168Z,19.43
2023-04-29T19:21:35.892Z,19.35
2023-04-29T19:24:03.788Z,19.37
2023-04-29T19:26:32.991Z,19.29
2023-04-29T19:29:02.801Z,19.26
2023-04-29T19:31:30.609Z,19.26
2023-04-29T19:33:58.071Z,19.20
2023-04-29T19:36:26.248Z,18.79
2023-04-29T19:38:54.092Z,18.86
2023-04-29T19:41:21.640Z,18.97
2023-04-29T19:43:49.322Z,18.95
2023-04-29T19:46:17.104Z,18.70
2023-04-29T19:48:44.586Z,18.79
2023-04-29T19:51:12.256Z,18.81
2023-04-29T19:53:40.833Z,18.81
2023-04-29T19:56:08.406Z,18.84
2023-04-29T19:58:36.028Z,18.81
2023-04-29T20:01:04.045Z,18.80
2023-04-29T20:03:32.814Z,18.87
2023-04-29T20:06:00.306Z,18.65
2023-04-29T20:08:27.802Z,18.72
2023-04-29T20:10:55.584Z,18.76
2023-04-29T20:13:23.003Z,18.75
2023-04-29T20:15:50.854Z,18.84
2023-04-29T20:18:18.568Z,18.75
2023-04-29T20:20:45.983Z,18.65
2023-04-29T20:23:13.647Z,18.70
2023-04-29T20:25:41.439Z,18.54
2023-04-29T20:28:09.400Z,18.54
2023-04-29T20:30:36.818Z,18.58
2023-04-29T20:33:05.328Z,18.61
2023-04-29T20:35:33.983Z,18.02
2023-04-29T20:38:01.470Z,18.10
2023-04-29T20:40:29.236Z,18.22
2023-04-29T20:42:57.297Z,18.47
2023-04-29T20:45:24.979Z,18.52
2023-04-29T20:47:53.042Z,18.27
2023-04-29T20:50:20.830Z,18.55
2023-04-29T20:52:49.460Z,18.62
2023-04-29T20:55:17.306Z,18.64
2023-04-29T20:57:44.727Z,18.67
2023-04-29T21:00:12.626Z,18.68
2023-04-29T21:02:40.337Z,18.70
2023-04-29T21:05:09.942Z,18.70
2023-04-29T21:07:37.661Z,18.62
2023-04-29T21:10:05.732Z,18.58
2023-04-29T21:12:33.305Z,18.56
2023-04-29T21:15:00.766Z,18.39
2023-04-29T21:17:28.738Z,18.46
2023-04-29T21:19:56.691Z,18.43
2023-04-29T21:22:24.560Z,18.43
2023-04-29T21:24:52.410Z,18.32
2023-04-29T21:27:19.796Z,18.13
2023-04-29T21:29:47.206Z,18.04
2023-04-29T21:32:18.255Z,17.99
2023-04-29T21:34:45.679Z,17.93
2023-04-29T21:37:13.283Z,18.00
2023-04-29T21:39:40.991Z,17.98
2023-04-29T21:42:08.972Z,18.05
2023-04-29T21:44:37.901Z,18.08
2023-04-29T21:47:06.866Z,18.02
2023-04-29T21:49:34.560Z,17.32
2023-04-29T21:52:02.064Z,17.78
2023-04-29T21:54:29.768Z,17.92
2023-04-29T21:56:58.030Z,17.98
2023-04-29T21:59:25.477Z,17.98
2023-04-29T22:02:00.340Z,17.98
2023-04-29T22:04:28.287Z,18.08
2023-04-29T22:06:56.920Z,18.00
2023-04-29T22:09:24.461Z,18.09
2023-04-29T22:11:52.201Z,18.05
2023-04-29T22:14:19.579Z,18.13
2023-04-29T22:16:47.161Z,18.26
2023-04-29T22:19:14.878Z,18.29
2023-04-29T22:21:43.285Z,18.32
2023-04-29T22:24:11.011Z,18.33
2023-04-29T22:26:38.661Z,18.26
2023-04-29T22:29:06.485Z,18.30
2023-04-29T22:31:33.988Z,18.22
2023-04-29T22:34:01.703Z,18.10
2023-04-29T22:36:29.233Z,18.25
2023-04-29T22:38:56.616Z,18.28
2023-04-29T22:41:24.393Z,18.35
2023-04-29T22:43:57.047Z,18.30
2023-04-29T22:46:25.541Z,18.16
2023-04-29T22:48:53.087Z,18.12
2023-04-29T22:51:20.703Z,18.29
2023-04-29T22:53:48.560Z,18.39
2023-04-29T22:56:15.964Z,18.35
2023-04-29T22:58:43.378Z,18.31
2023-04-29T23:01:12.192Z,18.34
2023-04-29T23:03:39.783Z,18.31
2023-04-29T23:06:07.339Z,18.29
2023-04-29T23:08:35.088Z,18.30
2023-04-29T23:11:02.536Z,17.82
2023-04-29T23:13:29.953Z,18.12
2023-04-29T23:15:59.459Z,18.09
2023-04-29T23:18:26.924Z,17.67
2023-04-29T23:20:55.483Z,17.72
2023-04-29T23:23:23.322Z,17.87
2023-04-29T23:25:50.807Z,17.84
2023-04-29T23:28:18.267Z,17.98
2023-04-29T23:30:49.092Z,18.03
2023-04-29T23:33:16.637Z,17.72
2023-04-29T23:35:53.627Z,17.79
2023-04-29T23:38:21.467Z,17.90
2023-04-29T23:40:49.369Z,17.95
2023-04-29T23:43:16.823Z,17.67
2023-04-29T23:45:45.855Z,17.82
2023-04-29T23:48:13.622Z,17.82
2023-04-29T23:50:41.015Z,17.88
2023-04-29T23:53:08.726Z,17.44
2023-04-29T23:55:36.219Z,17.73
2023-04-29T23:58:04.123Z,17.65
